createdAt,value
2023-05-11T00:02:02.574Z,8.98
2023-05-11T00:05:05.972Z,8.87
2023-05-11T00:08:09.457Z,8.89
2023-05-11T00:11:12.429Z,8.97
2023-05-11T00:14:15.187Z,9.01
2023-05-11T00:17:20.002Z,8.91
2023-05-11T00:20:24.104Z,8.77
2023-05-11T00:23:26.911Z,8.75
2023-05-11T00:26:30.902Z,8.76
2023-05-11T00:29:33.818Z,8.64
2023-05-11T00:32:37.448Z,8.67
2023-05-11T00:35:40.332Z,8.72
2023-05-11T00:38:43.748Z,8.65
2023-05-11T00:41:46.413Z,8.58
2023-05-11T00:44:49.215Z,8.60
2023-05-11T00:47:51.957Z,8.56
2023-05-11T00:50:55.045Z,8.53
2023-05-11T00:53:58.743Z,8.51
2023-05-11T00:57:04.388Z,8.54
2023-05-11T01:00:07.771Z,8.60
2023-05-11T01:03:11.254Z,8.60
2023-05-11T01:06:45.278Z,8.49
2023-05-11T01:10:10.696Z,8.47
2023-05-11T01:13:40.030Z,8.56
2023-05-11T01:16:50.154Z,8.75
2023-05-11T01:20:06.688Z,8.74
2023-05-11T01:23:29.392Z,8.85
2023-05-11T01:26:32.633Z,8.89
2023-05-11T01:29:44.274Z,8.88
2023-05-11T01:32:47.659Z,8.92
2023-05-11T01:35:53.813Z,8.97
2023-05-11T01:38:59.967Z,8.96
2023-05-11T01:42:08.859Z,8.87
2023-05-11T01:45:12.356Z,8.85
2023-05-11T01:48:18.353Z,8.89
2023-05-11T01:51:21.294Z,8.92
2023-05-11T01:54:24.934Z,8.95
2023-05-11T01:57:29.590Z,9.02
2023-05-11T02:00:33.796Z,9.05
2023-05-11T02:03:37.294Z,9.05
2023-05-11T02:06:41.539Z,9.06
2023-05-11T02:09:45.134Z,9.10
2023-05-11T02:12:48.406Z,9.11
2023-05-11T02:15:53.809Z,9.27
2023-05-11T02:18:58.506Z,9.37
2023-05-11T02:22:01.537Z,9.38
2023-05-11T02:25:05.415Z,9.47
2023-05-11T02:28:08.671Z,9.53
2023-05-11T02:31:17.546Z,9.59
2023-05-11T02:34:25.906Z,9.60
2023-05-11T02:37:31.145Z,9.63
2023-05-11T02:40:43.575Z,9.64
2023-05-11T02:43:49.866Z,9.68
2023-05-11T02:46:56.331Z,9.73
2023-05-11T02:50:02.002Z,9.74
2023-05-11T02:53:08.949Z,9.83
2023-05-11T02:56:12.043Z,9.92
2023-05-11T02:59:15.066Z,9.92
2023-05-11T03:02:18.097Z,9.94
2023-05-11T03:05:21.129Z,9.99
2023-05-11T03:08:24.301Z,10.06
2023-05-11T03:11:27.359Z,10.10
2023-05-11T03:14:33.429Z,10.17
2023-05-11T03:17:36.519Z,10.19
2023-05-11T03:20:40.946Z,10.16
2023-05-11T03:23:44.135Z,10.23
2023-05-11T03:26:47.024Z,10.23
2023-05-11T03:29:51.131Z,10.34
2023-05-11T03:32:57.033Z,10.36
2023-05-11T03:36:00.895Z,10.32
2023-05-11T03:39:05.545Z,10.39
2023-05-11T03:42:10.758Z,10.41
2023-05-11T03:45:15.163Z,10.37
2023-05-11T03:48:19.074Z,10.42
2023-05-11T03:51:21.888Z,10.41
2023-05-11T03:54:24.805Z,10.52
2023-05-11T03:57:27.807Z,10.64
2023-05-11T04:00:31.080Z,10.71
2023-05-11T04:03:35.731Z,10.68
2023-05-11T04:06:38.904Z,10.72
2023-05-11T04:09:52.172Z,10.73
2023-05-11T04:12:55.450Z,10.79
2023-05-11T04:15:58.355Z,10.87
2023-05-11T04:19:02.337Z,10.93
2023-05-11T04:22:05.306Z,10.99
2023-05-11T04:25:08.769Z,11.00
2023-05-11T04:28:11.521Z,11.08
2023-05-11T04:31:14.334Z,11.21
2023-05-11T04:34:17.300Z,11.33
2023-05-11T04:37:20.696Z,11.46
2023-05-11T04:40:23.799Z,11.57
2023-05-11T04:43:26.717Z,11.59
2023-05-11T04:46:29.961Z,11.53
2023-05-11T04:49:33.775Z,11.74
2023-05-11T04:52:36.896Z,11.87
2023-05-11T04:55:40.229Z,12.01
2023-05-11T04:58:44.322Z,12.15
2023-05-11T05:01:47.223Z,12.24
2023-05-11T05:04:50.327Z,12.37
2023-05-11T05:07:53.136Z,12.55
2023-05-11T05:10:56.397Z,12.66
2023-05-11T05:14:00.335Z,12.88
2023-05-11T05:17:03.448Z,13.14
2023-05-11T05:20:07.090Z,13.24
2023-05-11T05:23:09.886Z,13.47
2023-05-11T05:26:14.780Z,13.66
2023-05-11T05:29:17.766Z,13.87
2023-05-11T05:32:20.720Z,14.12
2023-05-11T05:35:23.886Z,14.29
2023-05-11T05:38:26.721Z,14.52
2023-05-11T05:41:30.040Z,14.70
2023-05-11T05:44:33.361Z,14.87
2023-05-11T05:47:36.418Z,15.14
2023-05-11T05:50:39.291Z,15.38
2023-05-11T05:53:42.757Z,15.47
2023-05-11T05:56:45.867Z,15.65
2023-05-11T05:59:48.649Z,15.62
2023-05-11T06:02:54.367Z,15.54
2023-05-11T06:06:02.848Z,15.13
2023-05-11T06:09:05.770Z,15.65
2023-05-11T06:12:10.325Z,15.79
2023-05-11T06:15:17.789Z,15.69
2023-05-11T06:18:26.079Z,15.96
2023-05-11T06:21:29.139Z,16.12
2023-05-11T06:24:32.691Z,16.25
2023-05-11T06:27:35.870Z,16.34
2023-05-11T06:30:39.086Z,16.43
2023-05-11T06:33:44.315Z,16.51
2023-05-11T06:36:59.679Z,16.63
2023-05-11T06:40:03.258Z,17.08
2023-05-11T06:43:06.847Z,17.08
2023-05-11T06:46:22.443Z,17.17
2023-05-11T06:49:25.796Z,17.51
2023-05-11T06:52:28.463Z,17.78
2023-05-11T06:55:31.349Z,18.35
2023-05-11T06:58:35.719Z,18.08
2023-05-11T07:01:38.958Z,18.17
2023-05-11T07:04:41.927Z,17.61
2023-05-11T07:07:44.933Z,17.88
2023-05-11T07:10:47.966Z,18.19
2023-05-11T07:13:50.685Z,18.40
2023-05-11T07:16:54.844Z,18.66
2023-05-11T07:19:57.577Z,18.76
2023-05-11T07:23:00.341Z,18.52
2023-05-11T07:26:09.143Z,18.69
2023-05-11T07:29:11.866Z,18.67
2023-05-11T07:32:14.865Z,18.88
2023-05-11T07:35:17.752Z,18.77
2023-05-11T07:38:20.623Z,18.82
2023-05-11T07:41:26.985Z,19.09
2023-05-11T07:44:29.952Z,19.08
2023-05-11T07:47:34.463Z,19.21
2023-05-11T07:50:39.710Z,19.15
2023-05-11T07:53:42.760Z,19.54
2023-05-11T07:56:46.116Z,19.67
2023-05-11T07:59:48.970Z,19.20
2023-05-11T08:02:52.017Z,19.18
2023-05-11T08:05:55.005Z,19.39
2023-05-11T08:08:57.911Z,19.57
2023-05-11T08:12:01.995Z,19.70
2023-05-11T08:15:06.117Z,20.08
2023-05-11T08:18:08.941Z,20.34
2023-05-11T08:21:13.368Z,20.53
2023-05-11T08:24:16.220Z,20.48
2023-05-11T08:27:19.031Z,20.64
2023-05-11T08:30:22.209Z,20.63
2023-05-11T08:33:37.469Z,20.86
2023-05-11T08:36:41.400Z,21.03
2023-05-11T08:39:47.381Z,21.33
2023-05-11T08:42:55.992Z,21.09
2023-05-11T08:46:05.379Z,21.43
2023-05-11T08:49:08.898Z,21.51
2023-05-11T08:52:13.318Z,21.83
2023-05-11T08:55:16.739Z,21.86
2023-05-11T08:58:22.689Z,21.86
2023-05-11T09:01:29.910Z,21.61
2023-05-11T09:04:33.334Z,21.94
2023-05-11T09:07:37.860Z,21.94
2023-05-11T09:27:25.677Z,21.30
2023-05-11T09:30:28.964Z,21.65
2023-05-11T09:33:31.771Z,21.55
2023-05-11T09:36:34.817Z,21.28
2023-05-11T09:39:44.698Z,20.88
2023-05-11T09:43:00.581Z,20.72
2023-05-11T09:46:07.940Z,20.75
2023-05-11T09:49:13.093Z,20.81
2023-05-11T09:52:17.824Z,20.57
2023-05-11T09:55:21.108Z,20.89
2023-05-11T09:58:24.728Z,21.07
2023-05-11T10:01:35.325Z,21.08
2023-05-11T10:04:38.133Z,21.37
2023-05-11T10:07:41.242Z,21.33
2023-05-11T10:10:44.149Z,21.40
2023-05-11T10:13:47.028Z,21.25
2023-05-11T10:16:50.643Z,21.44
2023-05-11T10:19:55.537Z,21.37
2023-05-11T10:22:58.553Z,21.74
2023-05-11T10:26:01.789Z,21.49
2023-05-11T10:29:04.787Z,21.48
2023-05-11T10:32:09.069Z,21.05
2023-05-11T10:35:12.263Z,21.77
2023-05-11T10:38:17.777Z,21.95
2023-05-11T10:41:31.440Z,22.48
2023-05-11T10:44:47.200Z,22.46
2023-05-11T10:48:13.065Z,22.26
2023-05-11T10:51:52.842Z,22.28
2023-05-11T10:55:00.293Z,22.16
2023-05-11T10:58:07.980Z,22.57
2023-05-11T11:01:22.984Z,23.33
2023-05-11T11:04:26.919Z,23.51
2023-05-11T11:07:30.997Z,23.98
2023-05-11T11:10:34.608Z,23.82
2023-05-11T11:13:57.776Z,23.04
2023-05-11T11:17:15.959Z,22.60
2023-05-11T11:20:57.483Z,22.64
2023-05-11T11:24:02.318Z,23.48
2023-05-11T11:27:06.952Z,23.67
2023-05-11T11:30:30.051Z,23.18
2023-05-11T11:33:34.468Z,23.17
2023-05-11T11:36:55.478Z,22.91
2023-05-11T11:40:13.153Z,23.40
2023-05-11T11:43:23.148Z,24.38
2023-05-11T11:46:29.180Z,23.97
2023-05-11T11:49:31.912Z,22.55
2023-05-11T11:52:35.579Z,23.24
2023-05-11T11:55:49.639Z,23.34
2023-05-11T11:58:52.310Z,23.28
2023-05-11T12:01:56.606Z,23.28
2023-05-11T12:05:13.025Z,23.50
2023-05-11T12:08:17.054Z,23.50
2023-05-11T12:11:20.045Z,24.15
2023-05-11T12:14:23.112Z,23.42
2023-05-11T12:17:29.792Z,23.22
2023-05-11T12:20:33.240Z,23.52
2023-05-11T12:23:36.212Z,23.21
2023-05-11T12:26:39.138Z,23.54
2023-05-11T12:29:41.804Z,23.11
2023-05-11T12:32:44.567Z,22.64
2023-05-11T12:35:52.660Z,22.20
2023-05-11T12:38:55.551Z,22.08
2023-05-11T12:41:58.297Z,23.35
2023-05-11T12:45:01.197Z,23.98
2023-05-11T12:48:04.981Z,23.26
2023-05-11T12:51:07.618Z,23.14
2023-05-11T12:54:10.471Z,23.77
2023-05-11T12:57:27.593Z,23.39
2023-05-11T13:00:30.247Z,23.33
2023-05-11T13:03:35.860Z,23.10
2023-05-11T13:06:38.868Z,22.14
2023-05-11T13:09:42.361Z,22.31
2023-05-11T13:12:49.971Z,23.19
2023-05-11T13:15:53.063Z,23.34
2023-05-11T13:19:03.827Z,23.48
2023-05-11T13:22:07.453Z,23.40
2023-05-11T13:25:10.446Z,23.13
2023-05-11T13:28:18.267Z,22.74
2023-05-11T13:31:21.305Z,22.71
2023-05-11T13:34:26.025Z,22.44
2023-05-11T13:37:28.823Z,23.13
2023-05-11T13:40:31.734Z,22.74
2023-05-11T13:43:34.450Z,23.32
2023-05-11T13:46:37.333Z,23.21
2023-05-11T13:49:40.152Z,22.99
2023-05-11T13:52:42.921Z,22.93
2023-05-11T13:55:45.617Z,23.97
2023-05-11T13:58:48.265Z,23.42
2023-05-11T14:01:51.329Z,23.40
2023-05-11T14:04:54.074Z,22.89
2023-05-11T14:07:56.805Z,22.73
2023-05-11T14:10:59.405Z,22.41
2023-05-11T14:14:02.062Z,21.97
2023-05-11T14:17:04.896Z,22.09
2023-05-11T14:20:08.418Z,22.90
2023-05-11T14:23:11.229Z,23.02
2023-05-11T14:26:14.056Z,23.20
2023-05-11T14:29:16.856Z,23.32
2023-05-11T14:32:20.696Z,23.35
2023-05-11T14:35:23.598Z,23.27
2023-05-11T14:38:26.392Z,23.70
2023-05-11T14:41:29.135Z,23.16
2023-05-11T14:44:32.178Z,22.41
2023-05-11T14:47:35.067Z,22.20
2023-05-11T14:50:37.908Z,22.06
2023-05-11T14:53:40.876Z,21.69
2023-05-11T14:56:43.692Z,21.66
2023-05-11T14:59:58.496Z,21.44
2023-05-11T15:03:02.836Z,21.60
2023-05-11T15:06:06.019Z,22.63
2023-05-11T15:09:09.028Z,22.76
2023-05-11T15:12:11.733Z,22.83
2023-05-11T15:15:14.493Z,22.95
2023-05-11T15:18:17.299Z,22.95
2023-05-11T15:21:20.069Z,22.99
2023-05-11T15:24:22.863Z,23.13
2023-05-11T15:27:25.596Z,23.16
2023-05-11T15:30:30.834Z,23.03
2023-05-11T15:33:34.695Z,22.57
2023-05-11T15:36:37.594Z,22.91
2023-05-11T15:39:40.844Z,23.20
2023-05-11T15:42:43.615Z,22.95
2023-05-11T15:45:46.647Z,22.82
2023-05-11T15:48:49.318Z,22.88
2023-05-11T15:51:52.023Z,22.66
2023-05-11T15:54:54.948Z,23.05
2023-05-11T15:57:57.623Z,22.48
2023-05-11T16:01:00.461Z,21.73
2023-05-11T16:04:04.210Z,21.46
2023-05-11T16:07:07.235Z,21.22
2023-05-11T16:10:10.416Z,20.98
2023-05-11T16:13:13.102Z,20.78
2023-05-11T16:16:15.867Z,20.63
2023-05-11T16:19:18.695Z,20.46
2023-05-11T16:22:21.685Z,20.63
2023-05-11T16:25:24.524Z,20.73
2023-05-11T16:28:27.188Z,20.76
2023-05-11T16:31:30.334Z,20.79
2023-05-11T16:34:35.412Z,20.69
2023-05-11T16:37:38.522Z,20.65
2023-05-11T16:40:41.422Z,20.13
2023-05-11T16:43:46.413Z,20.25
2023-05-11T16:46:49.537Z,20.32
2023-05-11T16:49:52.667Z,20.25
2023-05-11T16:52:55.981Z,20.27
2023-05-11T16:55:58.864Z,20.12
2023-05-11T16:59:01.680Z,19.88
2023-05-11T17:02:06.462Z,19.67
2023-05-11T17:05:11.066Z,19.64
2023-05-11T17:08:13.837Z,19.56
2023-05-11T17:11:16.525Z,19.44
2023-05-11T17:14:21.187Z,19.14
2023-05-11T17:17:24.886Z,18.98
2023-05-11T17:20:27.755Z,18.87
2023-05-11T17:23:30.519Z,18.73
2023-05-11T17:26:46.393Z,18.51
2023-05-11T17:29:49.741Z,18.39
2023-05-11T17:32:52.951Z,18.35
2023-05-11T17:35:56.031Z,18.20
2023-05-11T17:38:58.776Z,18.09
2023-05-11T17:42:01.560Z,17.94
2023-05-11T17:45:04.647Z,17.80
2023-05-11T17:48:07.399Z,17.66
2023-05-11T17:51:10.964Z,17.53
2023-05-11T17:54:14.109Z,17.41
2023-05-11T17:57:17.309Z,17.26
2023-05-11T18:00:22.888Z,17.13
2023-05-11T18:03:25.929Z,16.96
2023-05-11T18:06:28.957Z,16.80
2023-05-11T18:09:32.041Z,16.70
2023-05-11T18:12:34.879Z,16.54
2023-05-11T18:15:38.465Z,16.43
2023-05-11T18:18:42.900Z,16.30
2023-05-11T18:21:46.033Z,16.12
2023-05-11T18:24:49.397Z,15.88
2023-05-11T18:27:52.627Z,15.73
2023-05-11T18:30:56.093Z,15.85
2023-05-11T18:33:58.943Z,15.66
2023-05-11T18:37:03.131Z,15.59
2023-05-11T18:40:07.720Z,15.50
2023-05-11T18:43:10.587Z,15.33
2023-05-11T18:46:13.498Z,15.20
2023-05-11T18:49:16.398Z,15.11
2023-05-11T18:52:19.188Z,15.01
2023-05-11T18:55:22.382Z,14.86
2023-05-11T18:58:25.449Z,14.71
2023-05-11T19:01:36.543Z,14.71
2023-05-11T19:04:49.142Z,14.65
2023-05-11T19:07:52.598Z,14.54
2023-05-11T19:10:55.412Z,14.29
2023-05-11T19:14:01.957Z,14.32
2023-05-11T19:17:05.623Z,14.23
2023-05-11T19:20:09.972Z,14.12
2023-05-11T19:23:13.710Z,14.05
2023-05-11T19:26:16.582Z,13.97
2023-05-11T19:29:22.074Z,14.00
2023-05-11T19:32:25.099Z,13.95
2023-05-11T19:35:28.626Z,13.85
2023-05-11T19:38:31.588Z,13.75
2023-05-11T19:41:35.022Z,13.71
2023-05-11T19:44:43.635Z,13.61
2023-05-11T19:47:46.538Z,13.52
2023-05-11T19:50:49.357Z,13.47
2023-05-11T19:53:52.046Z,13.35
2023-05-11T19:56:56.575Z,13.35
2023-05-11T19:59:59.353Z,13.27
2023-05-11T20:03:02.338Z,13.20
2023-05-11T20:06:05.140Z,13.16
2023-05-11T20:09:07.858Z,13.03
2023-05-11T20:12:11.267Z,12.98
2023-05-11T20:15:14.095Z,13.08
2023-05-11T20:18:18.865Z,13.06
2023-05-11T20:21:21.897Z,13.02
2023-05-11T20:24:24.765Z,13.03
2023-05-11T20:27:27.621Z,12.97
2023-05-11T20:30:30.480Z,12.93
2023-05-11T20:36:39.510Z,12.78
2023-05-11T20:39:43.941Z,12.73
2023-05-11T20:42:46.733Z,12.67
2023-05-11T20:45:49.522Z,12.65
2023-05-11T20:48:52.280Z,12.67
2023-05-11T20:51:57.155Z,12.63
2023-05-11T20:54:59.849Z,12.56
2023-05-11T20:58:04.587Z,12.50
2023-05-11T21:01:07.455Z,12.37
2023-05-11T21:04:10.140Z,12.31
2023-05-11T21:07:12.857Z,12.22
2023-05-11T21:10:15.598Z,12.15
2023-05-11T21:13:18.309Z,12.10
2023-05-11T21:16:21.056Z,11.91
2023-05-11T21:19:23.677Z,12.02
2023-05-11T21:22:26.306Z,11.94
2023-05-11T21:25:28.925Z,11.90
2023-05-11T21:28:32.872Z,11.88
2023-05-11T21:31:35.572Z,11.84
2023-05-11T21:34:38.646Z,11.79
2023-05-11T21:37:41.962Z,11.69
2023-05-11T21:40:44.888Z,11.80
2023-05-11T21:43:47.447Z,11.90
2023-05-11T21:46:50.764Z,12.34
2023-05-11T21:49:53.479Z,12.42
2023-05-11T21:52:56.221Z,12.40
2023-05-11T21:55:58.857Z,12.38
2023-05-11T21:59:01.569Z,12.36
2023-05-11T22:02:04.419Z,12.44
2023-05-11T22:05:07.340Z,12.39
2023-05-11T22:08:14.908Z,12.11
2023-05-11T22:11:19.788Z,12.00
2023-05-11T22:14:24.326Z,11.89
2023-05-11T22:17:26.949Z,11.84
2023-05-11T22:20:29.630Z,11.93
2023-05-11T22:23:32.332Z,11.82
2023-05-11T22:26:35.416Z,11.70
2023-05-11T22:29:38.039Z,11.69
2023-05-11T22:32:40.653Z,11.70
2023-05-11T22:35:43.299Z,11.65
2023-05-11T22:38:45.907Z,11.65
2023-05-11T22:41:48.511Z,11.55
2023-05-11T22:44:51.196Z,11.49
2023-05-11T22:47:54.498Z,11.23
2023-05-11T22:50:57.201Z,11.08
2023-05-11T22:53:59.848Z,10.87
2023-05-11T22:57:03.753Z,10.91
2023-05-11T23:00:10.890Z,10.99
2023-05-11T23:03:13.763Z,11.00
2023-05-11T23:06:16.651Z,10.83
2023-05-11T23:09:19.345Z,10.80
2023-05-11T23:12:21.934Z,11.02
2023-05-11T23:15:24.742Z,10.91
2023-05-11T23:18:27.491Z,10.84
2023-05-11T23:21:30.294Z,10.85
2023-05-11T23:24:33.031Z,10.83
2023-05-11T23:27:35.613Z,10.72
2023-05-11T23:30:38.509Z,10.51
2023-05-11T23:33:41.077Z,10.51
2023-05-11T23:36:44.067Z,10.49
2023-05-11T23:39:46.696Z,10.43
2023-05-11T23:42:49.877Z,10.38
2023-05-11T23:45:52.743Z,10.36
2023-05-11T23:48:56.093Z,10.28
2023-05-11T23:51:58.944Z,10.22
2023-05-11T23:55:01.560Z,10.15
2023-05-11T23:58:04.186Z,10.01
